sensor_id;sensor_type;location;lat;lon;timestamp;temperature;humidity
21891;DHT22;11110;52.386;16.940;2023-01-16T00:00:35;19.40;36.60
21891;DHT22;11110;52.386;16.940;2023-01-16T00:03:23;19.40;36.40
21891;DHT22;11110;52.386;16.940;2023-01-16T00:05:52;19.40;36.40
21891;DHT22;11110;52.386;16.940;2023-01-16T00:08:22;19.40;36.40
21891;DHT22;11110;52.386;16.940;2023-01-16T00:10:52;19.40;36.40
21891;DHT22;11110;52.386;16.940;2023-01-16T00:13:21;19.40;36.40
21891;DHT22;11110;52.386;16.940;2023-01-16T00:15:51;19.40;36.40
21891;DHT22;11110;52.386;16.940;2023-01-16T00:18:20;19.50;36.40
21891;DHT22;11110;52.386;16.940;2023-01-16T00:20:49;19.60;36.40
21891;DHT22;11110;52.386;16.940;2023-01-16T00:23:17;19.60;36.40
21891;DHT22;11110;52.386;16.940;2023-01-16T00:25:46;19.70;36.40
21891;DHT22;11110;52.386;16.940;2023-01-16T00:28:16;19.60;36.20
21891;DHT22;11110;52.386;16.940;2023-01-16T00:30:45;19.70;36.10
21891;DHT22;11110;52.386;16.940;2023-01-16T00:33:15;19.70;36.10
21891;DHT22;11110;52.386;16.940;2023-01-16T00:35:46;19.70;36.10
21891;DHT22;11110;52.386;16.940;2023-01-16T00:38:16;19.70;36.10
21891;DHT22;11110;52.386;16.940;2023-01-16T00:40:44;19.60;36.10
21891;DHT22;11110;52.386;16.940;2023-01-16T00:43:13;19.80;36.10
21891;DHT22;11110;52.386;16.940;2023-01-16T00:45:44;19.60;36.10
21891;DHT22;11110;52.386;16.940;2023-01-16T00:48:13;19.70;36.00
21891;DHT22;11110;52.386;16.940;2023-01-16T00:50:42;19.70;36.20
21891;DHT22;11110;52.386;16.940;2023-01-16T00:53:11;19.70;36.20
21891;DHT22;11110;52.386;16.940;2023-01-16T00:55:40;19.60;36.10
21891;DHT22;11110;52.386;16.940;2023-01-16T00:58:10;19.50;36.00
21891;DHT22;11110;52.386;16.940;2023-01-16T01:00:39;19.40;36.20
21891;DHT22;11110;52.386;16.940;2023-01-16T01:03:09;19.50;36.30
21891;DHT22;11110;52.386;16.940;2023-01-16T01:05:38;19.50;36.20
21891;DHT22;11110;52.386;16.940;2023-01-16T01:08:08;19.50;36.30
21891;DHT22;11110;52.386;16.940;2023-01-16T01:10:37;19.60;36.40
21891;DHT22;11110;52.386;16.940;2023-01-16T01:13:07;19.40;36.40
21891;DHT22;11110;52.386;16.940;2023-01-16T01:15:36;19.50;36.40
21891;DHT22;11110;52.386;16.940;2023-01-16T01:18:05;19.50;36.20
21891;DHT22;11110;52.386;16.940;2023-01-16T01:20:35;19.50;36.20
21891;DHT22;11110;52.386;16.940;2023-01-16T01:23:04;19.60;36.30
21891;DHT22;11110;52.386;16.940;2023-01-16T01:25:33;19.50;36.30
21891;DHT22;11110;52.386;16.940;2023-01-16T01:28:02;19.50;36.20
21891;DHT22;11110;52.386;16.940;2023-01-16T01:30:30;19.30;36.30
21891;DHT22;11110;52.386;16.940;2023-01-16T01:32:59;19.30;36.40
21891;DHT22;11110;52.386;16.940;2023-01-16T01:35:28;19.30;36.40
21891;DHT22;11110;52.386;16.940;2023-01-16T01:37:59;19.30;36.40
21891;DHT22;11110;52.386;16.940;2023-01-16T01:40:27;19.40;36.50
21891;DHT22;11110;52.386;16.940;2023-01-16T01:42:56;19.40;36.50
21891;DHT22;11110;52.386;16.940;2023-01-16T01:45:27;19.30;36.50
21891;DHT22;11110;52.386;16.940;2023-01-16T01:48:00;19.40;36.50
21891;DHT22;11110;52.386;16.940;2023-01-16T01:50:36;19.40;36.60
21891;DHT22;11110;52.386;16.940;2023-01-16T01:53:11;19.30;36.50
21891;DHT22;11110;52.386;16.940;2023-01-16T01:55:42;19.20;36.60
21891;DHT22;11110;52.386;16.940;2023-01-16T01:58:13;19.20;36.60
21891;DHT22;11110;52.386;16.940;2023-01-16T02:00:49;19.30;36.70
21891;DHT22;11110;52.386;16.940;2023-01-16T02:03:23;19.30;36.60
21891;DHT22;11110;52.386;16.940;2023-01-16T02:05:55;19.20;36.60
21891;DHT22;11110;52.386;16.940;2023-01-16T02:08:30;19.20;36.60
21891;DHT22;11110;52.386;16.940;2023-01-16T02:11:03;19.30;36.90
21891;DHT22;11110;52.386;16.940;2023-01-16T02:13:33;19.40;36.80
21891;DHT22;11110;52.386;16.940;2023-01-16T02:16:02;19.30;36.60
21891;DHT22;11110;52.386;16.940;2023-01-16T02:18:48;19.30;36.60
21891;DHT22;11110;52.386;16.940;2023-01-16T02:21:52;19.30;36.70
21891;DHT22;11110;52.386;16.940;2023-01-16T02:24:47;19.30;36.70
21891;DHT22;11110;52.386;16.940;2023-01-16T02:27:38;19.30;36.70
21891;DHT22;11110;52.386;16.940;2023-01-16T02:30:36;19.30;36.80
21891;DHT22;11110;52.386;16.940;2023-01-16T02:33:12;19.30;36.70
21891;DHT22;11110;52.386;16.940;2023-01-16T02:35:58;19.40;36.70
21891;DHT22;11110;52.386;16.940;2023-01-16T02:38:36;19.30;36.70
21891;DHT22;11110;52.386;16.940;2023-01-16T02:41:15;19.40;36.60
21891;DHT22;11110;52.386;16.940;2023-01-16T02:43:54;19.40;36.60
21891;DHT22;11110;52.386;16.940;2023-01-16T02:46:28;19.30;36.60
21891;DHT22;11110;52.386;16.940;2023-01-16T02:49:06;19.40;36.80
21891;DHT22;11110;52.386;16.940;2023-01-16T02:51:44;19.40;36.80
21891;DHT22;11110;52.386;16.940;2023-01-16T02:54:19;19.40;36.70
21891;DHT22;11110;52.386;16.940;2023-01-16T02:56:53;19.40;36.60
21891;DHT22;11110;52.386;16.940;2023-01-16T02:59:25;19.40;36.70
21891;DHT22;11110;52.386;16.940;2023-01-16T03:01:56;19.30;36.70
21891;DHT22;11110;52.386;16.940;2023-01-16T03:04:45;19.30;36.80
21891;DHT22;11110;52.386;16.940;2023-01-16T03:07:32;19.30;36.80
21891;DHT22;11110;52.386;16.940;2023-01-16T03:10:20;19.20;36.90
21891;DHT22;11110;52.386;16.940;2023-01-16T03:13:01;19.10;37.00
21891;DHT22;11110;52.386;16.940;2023-01-16T03:15:42;19.20;37.10
21891;DHT22;11110;52.386;16.940;2023-01-16T03:18:22;19.20;37.10
21891;DHT22;11110;52.386;16.940;2023-01-16T03:20:59;19.20;37.10
21891;DHT22;11110;52.386;16.940;2023-01-16T03:23:34;19.20;37.10
21891;DHT22;11110;52.386;16.940;2023-01-16T03:26:13;19.20;37.10
21891;DHT22;11110;52.386;16.940;2023-01-16T03:28:52;19.30;37.20
21891;DHT22;11110;52.386;16.940;2023-01-16T03:31:28;19.20;37.20
21891;DHT22;11110;52.386;16.940;2023-01-16T03:34:07;19.20;37.20
21891;DHT22;11110;52.386;16.940;2023-01-16T03:36:46;19.30;37.10
21891;DHT22;11110;52.386;16.940;2023-01-16T03:39:20;19.20;37.10
21891;DHT22;11110;52.386;16.940;2023-01-16T03:41:52;19.10;37.10
21891;DHT22;11110;52.386;16.940;2023-01-16T03:44:26;19.10;37.20
21891;DHT22;11110;52.386;16.940;2023-01-16T03:46:58;19.20;37.20
21891;DHT22;11110;52.386;16.940;2023-01-16T03:49:31;19.10;37.20
21891;DHT22;11110;52.386;16.940;2023-01-16T03:52:04;19.20;37.20
21891;DHT22;11110;52.386;16.940;2023-01-16T03:54:41;19.10;37.20
21891;DHT22;11110;52.386;16.940;2023-01-16T03:57:15;19.00;37.20
21891;DHT22;11110;52.386;16.940;2023-01-16T03:59:46;19.00;37.20
21891;DHT22;11110;52.386;16.940;2023-01-16T04:02:19;19.10;37.20
21891;DHT22;11110;52.386;16.940;2023-01-16T04:04:52;19.00;37.10
21891;DHT22;11110;52.386;16.940;2023-01-16T04:07:31;19.00;37.10
21891;DHT22;11110;52.386;16.940;2023-01-16T04:10:05;19.10;37.20
21891;DHT22;11110;52.386;16.940;2023-01-16T04:12:36;19.00;37.20
21891;DHT22;11110;52.386;16.940;2023-01-16T04:15:08;18.90;37.20
21891;DHT22;11110;52.386;16.940;2023-01-16T04:17:39;19.00;37.20
21891;DHT22;11110;52.386;16.940;2023-01-16T04:20:10;19.00;37.20
21891;DHT22;11110;52.386;16.940;2023-01-16T04:22:41;19.00;37.20
21891;DHT22;11110;52.386;16.940;2023-01-16T04:25:10;18.90;37.20
21891;DHT22;11110;52.386;16.940;2023-01-16T04:27:38;18.90;37.20
21891;DHT22;11110;52.386;16.940;2023-01-16T04:30:09;18.90;37.20
21891;DHT22;11110;52.386;16.940;2023-01-16T04:32:38;18.80;37.30
21891;DHT22;11110;52.386;16.940;2023-01-16T04:35:07;18.80;37.40
21891;DHT22;11110;52.386;16.940;2023-01-16T04:37:36;18.80;37.40
21891;DHT22;11110;52.386;16.940;2023-01-16T04:40:08;18.80;37.40
21891;DHT22;11110;52.386;16.940;2023-01-16T04:42:36;18.90;37.40
21891;DHT22;11110;52.386;16.940;2023-01-16T04:45:06;18.90;37.40
21891;DHT22;11110;52.386;16.940;2023-01-16T04:47:35;18.90;37.30
21891;DHT22;11110;52.386;16.940;2023-01-16T04:50:04;18.90;37.40
21891;DHT22;11110;52.386;16.940;2023-01-16T04:52:33;18.90;37.40
21891;DHT22;11110;52.386;16.940;2023-01-16T04:55:02;18.90;37.40
21891;DHT22;11110;52.386;16.940;2023-01-16T04:57:32;18.90;37.30
21891;DHT22;11110;52.386;16.940;2023-01-16T05:00:01;18.90;37.40
21891;DHT22;11110;52.386;16.940;2023-01-16T05:02:30;18.80;37.40
21891;DHT22;11110;52.386;16.940;2023-01-16T05:04:59;18.80;37.40
21891;DHT22;11110;52.386;16.940;2023-01-16T05:07:27;18.80;37.40
21891;DHT22;11110;52.386;16.940;2023-01-16T05:09:56;18.90;37.40
21891;DHT22;11110;52.386;16.940;2023-01-16T05:12:24;18.80;37.40
21891;DHT22;11110;52.386;16.940;2023-01-16T05:14:55;18.80;37.40
21891;DHT22;11110;52.386;16.940;2023-01-16T05:17:23;18.80;37.50
21891;DHT22;11110;52.386;16.940;2023-01-16T05:19:53;18.70;37.60
21891;DHT22;11110;52.386;16.940;2023-01-16T05:22:22;18.60;37.60
21891;DHT22;11110;52.386;16.940;2023-01-16T05:24:50;18.50;37.70
21891;DHT22;11110;52.386;16.940;2023-01-16T05:27:19;18.60;37.70
21891;DHT22;11110;52.386;16.940;2023-01-16T05:29:48;18.40;37.70
21891;DHT22;11110;52.386;16.940;2023-01-16T05:32:18;18.40;37.90
21891;DHT22;11110;52.386;16.940;2023-01-16T05:34:46;18.30;37.90
21891;DHT22;11110;52.386;16.940;2023-01-16T05:37:15;18.30;38.20
21891;DHT22;11110;52.386;16.940;2023-01-16T05:39:44;18.30;38.10
21891;DHT22;11110;52.386;16.940;2023-01-16T05:42:13;18.30;38.10
21891;DHT22;11110;52.386;16.940;2023-01-16T05:44:49;18.30;38.20
21891;DHT22;11110;52.386;16.940;2023-01-16T05:47:20;18.40;38.20
21891;DHT22;11110;52.386;16.940;2023-01-16T05:49:49;18.40;38.10
21891;DHT22;11110;52.386;16.940;2023-01-16T05:52:17;18.30;38.00
21891;DHT22;11110;52.386;16.940;2023-01-16T05:54:46;18.20;38.00
21891;DHT22;11110;52.386;16.940;2023-01-16T05:57:15;18.20;38.70
21891;DHT22;11110;52.386;16.940;2023-01-16T05:59:43;18.30;38.10
21891;DHT22;11110;52.386;16.940;2023-01-16T06:02:12;18.20;38.00
21891;DHT22;11110;52.386;16.940;2023-01-16T06:04:43;18.30;38.10
21891;DHT22;11110;52.386;16.940;2023-01-16T06:07:11;18.40;38.10
21891;DHT22;11110;52.386;16.940;2023-01-16T06:09:41;18.30;38.00
21891;DHT22;11110;52.386;16.940;2023-01-16T06:12:13;18.30;38.00
21891;DHT22;11110;52.386;16.940;2023-01-16T06:14:43;18.40;38.00
21891;DHT22;11110;52.386;16.940;2023-01-16T06:17:15;18.40;37.90
21891;DHT22;11110;52.386;16.940;2023-01-16T06:19:47;18.40;37.90
21891;DHT22;11110;52.386;16.940;2023-01-16T06:22:15;18.40;37.90
21891;DHT22;11110;52.386;16.940;2023-01-16T06:24:44;18.40;37.90
21891;DHT22;11110;52.386;16.940;2023-01-16T06:27:13;18.40;38.00
21891;DHT22;11110;52.386;16.940;2023-01-16T06:29:41;18.40;38.00
21891;DHT22;11110;52.386;16.940;2023-01-16T06:32:10;18.40;38.00
21891;DHT22;11110;52.386;16.940;2023-01-16T06:34:39;18.40;38.00
21891;DHT22;11110;52.386;16.940;2023-01-16T06:37:08;18.50;38.60
21891;DHT22;11110;52.386;16.940;2023-01-16T06:39:37;18.50;38.00
21891;DHT22;11110;52.386;16.940;2023-01-16T06:42:06;18.40;38.00
21891;DHT22;11110;52.386;16.940;2023-01-16T06:44:35;18.50;38.00
21891;DHT22;11110;52.386;16.940;2023-01-16T06:47:03;18.50;38.00
21891;DHT22;11110;52.386;16.940;2023-01-16T06:49:34;18.50;38.00
21891;DHT22;11110;52.386;16.940;2023-01-16T06:52:02;18.40;38.00
21891;DHT22;11110;52.386;16.940;2023-01-16T06:54:33;18.40;38.00
21891;DHT22;11110;52.386;16.940;2023-01-16T06:57:01;18.50;38.10
21891;DHT22;11110;52.386;16.940;2023-01-16T06:59:30;18.40;38.00
21891;DHT22;11110;52.386;16.940;2023-01-16T07:01:59;18.40;38.00
21891;DHT22;11110;52.386;16.940;2023-01-16T07:04:27;18.40;38.10
21891;DHT22;11110;52.386;16.940;2023-01-16T07:06:56;18.40;38.20
21891;DHT22;11110;52.386;16.940;2023-01-16T07:09:25;18.30;38.20
21891;DHT22;11110;52.386;16.940;2023-01-16T07:11:58;18.30;38.20
21891;DHT22;11110;52.386;16.940;2023-01-16T07:14:26;18.30;38.30
21891;DHT22;11110;52.386;16.940;2023-01-16T07:17:13;18.30;38.30
21891;DHT22;11110;52.386;16.940;2023-01-16T07:19:59;18.20;38.40
21891;DHT22;11110;52.386;16.940;2023-01-16T07:22:45;18.30;38.40
21891;DHT22;11110;52.386;16.940;2023-01-16T07:25:19;18.20;38.40
21891;DHT22;11110;52.386;16.940;2023-01-16T07:27:50;18.20;38.40
21891;DHT22;11110;52.386;16.940;2023-01-16T07:30:22;18.30;38.40
21891;DHT22;11110;52.386;16.940;2023-01-16T07:32:51;18.30;38.60
21891;DHT22;11110;52.386;16.940;2023-01-16T07:35:20;18.20;38.50
21891;DHT22;11110;52.386;16.940;2023-01-16T07:37:48;18.20;38.70
21891;DHT22;11110;52.386;16.940;2023-01-16T07:40:19;18.20;38.70
21891;DHT22;11110;52.386;16.940;2023-01-16T07:42:50;18.10;38.80
21891;DHT22;11110;52.386;16.940;2023-01-16T07:45:19;18.10;38.90
21891;DHT22;11110;52.386;16.940;2023-01-16T07:47:47;18.10;39.00
21891;DHT22;11110;52.386;16.940;2023-01-16T07:50:16;18.00;39.20
21891;DHT22;11110;52.386;16.940;2023-01-16T07:52:45;17.90;39.20
21891;DHT22;11110;52.386;16.940;2023-01-16T07:55:14;18.00;39.20
21891;DHT22;11110;52.386;16.940;2023-01-16T07:57:43;18.10;39.30
21891;DHT22;11110;52.386;16.940;2023-01-16T08:00:14;18.10;39.40
21891;DHT22;11110;52.386;16.940;2023-01-16T08:02:43;18.10;39.30
21891;DHT22;11110;52.386;16.940;2023-01-16T08:05:12;18.10;39.40
21891;DHT22;11110;52.386;16.940;2023-01-16T08:07:40;18.00;39.20
21891;DHT22;11110;52.386;16.940;2023-01-16T08:10:10;18.10;39.30
21891;DHT22;11110;52.386;16.940;2023-01-16T08:12:39;18.10;40.00
21891;DHT22;11110;52.386;16.940;2023-01-16T08:15:08;18.20;39.20
21891;DHT22;11110;52.386;16.940;2023-01-16T08:17:39;18.20;39.20
21891;DHT22;11110;52.386;16.940;2023-01-16T08:20:09;18.20;39.10
21891;DHT22;11110;52.386;16.940;2023-01-16T08:22:42;18.20;39.10
21891;DHT22;11110;52.386;16.940;2023-01-16T08:25:12;18.20;39.10
21891;DHT22;11110;52.386;16.940;2023-01-16T08:27:41;18.20;39.20
21891;DHT22;11110;52.386;16.940;2023-01-16T08:30:11;18.30;39.20
21891;DHT22;11110;52.386;16.940;2023-01-16T08:32:41;18.30;39.10
21891;DHT22;11110;52.386;16.940;2023-01-16T08:35:10;18.40;39.10
21891;DHT22;11110;52.386;16.940;2023-01-16T08:37:38;18.40;39.00
21891;DHT22;11110;52.386;16.940;2023-01-16T08:40:08;18.50;39.00
21891;DHT22;11110;52.386;16.940;2023-01-16T08:42:37;18.50;38.90
21891;DHT22;11110;52.386;16.940;2023-01-16T08:45:23;18.50;38.90
21891;DHT22;11110;52.386;16.940;2023-01-16T08:48:11;18.50;38.90
21891;DHT22;11110;52.386;16.940;2023-01-16T08:51:00;18.50;38.90
21891;DHT22;11110;52.386;16.940;2023-01-16T08:53:45;18.50;39.00
21891;DHT22;11110;52.386;16.940;2023-01-16T08:56:14;18.40;39.10
21891;DHT22;11110;52.386;16.940;2023-01-16T08:58:43;18.40;39.20
21891;DHT22;11110;52.386;16.940;2023-01-16T09:01:11;18.20;39.20
21891;DHT22;11110;52.386;16.940;2023-01-16T09:03:41;18.20;39.80
21891;DHT22;11110;52.386;16.940;2023-01-16T09:06:10;18.00;39.80
21891;DHT22;11110;52.386;16.940;2023-01-16T09:08:39;18.10;40.20
21891;DHT22;11110;52.386;16.940;2023-01-16T09:11:08;18.00;40.00
21891;DHT22;11110;52.386;16.940;2023-01-16T09:13:54;18.00;40.30
21891;DHT22;11110;52.386;16.940;2023-01-16T09:16:27;17.90;40.40
21891;DHT22;11110;52.386;16.940;2023-01-16T09:18:57;18.20;40.40
21891;DHT22;11110;52.386;16.940;2023-01-16T09:21:26;18.20;40.20
21891;DHT22;11110;52.386;16.940;2023-01-16T09:23:54;18.30;40.00
21891;DHT22;11110;52.386;16.940;2023-01-16T09:26:23;18.10;40.00
21891;DHT22;11110;52.386;16.940;2023-01-16T09:28:52;18.00;40.00
21891;DHT22;11110;52.386;16.940;2023-01-16T09:31:21;18.10;40.30
21891;DHT22;11110;52.386;16.940;2023-01-16T09:33:49;18.20;40.20
21891;DHT22;11110;52.386;16.940;2023-01-16T09:36:21;18.20;40.20
21891;DHT22;11110;52.386;16.940;2023-01-16T09:38:50;18.30;40.10
21891;DHT22;11110;52.386;16.940;2023-01-16T09:41:19;18.30;40.00
21891;DHT22;11110;52.386;16.940;2023-01-16T09:44:04;18.30;39.90
21891;DHT22;11110;52.386;16.940;2023-01-16T09:46:36;18.40;39.90
21891;DHT22;11110;52.386;16.940;2023-01-16T09:49:18;18.50;39.90
21891;DHT22;11110;52.386;16.940;2023-01-16T09:51:54;18.50;39.80
21891;DHT22;11110;52.386;16.940;2023-01-16T09:54:46;18.60;40.00
21891;DHT22;11110;52.386;16.940;2023-01-16T09:57:33;18.60;39.90
21891;DHT22;11110;52.386;16.940;2023-01-16T10:00:23;18.70;39.70
21891;DHT22;11110;52.386;16.940;2023-01-16T10:02:52;18.80;39.60
21891;DHT22;11110;52.386;16.940;2023-01-16T10:05:22;18.80;39.50
21891;DHT22;11110;52.386;16.940;2023-01-16T10:07:59;18.90;39.40
21891;DHT22;11110;52.386;16.940;2023-01-16T10:10:42;19.00;39.10
21891;DHT22;11110;52.386;16.940;2023-01-16T10:16:15;19.10;39.00
21891;DHT22;11110;52.386;16.940;2023-01-16T10:18:52;19.20;39.10
21891;DHT22;11110;52.386;16.940;2023-01-16T10:21:32;19.40;38.90
21891;DHT22;11110;52.386;16.940;2023-01-16T10:24:15;19.40;38.40
21891;DHT22;11110;52.386;16.940;2023-01-16T10:26:54;19.50;38.40
21891;DHT22;11110;52.386;16.940;2023-01-16T10:29:28;19.30;38.40
21891;DHT22;11110;52.386;16.940;2023-01-16T10:32:02;19.50;38.40
21891;DHT22;11110;52.386;16.940;2023-01-16T10:34:35;19.40;38.30
21891;DHT22;11110;52.386;16.940;2023-01-16T10:37:07;19.60;38.30
21891;DHT22;11110;52.386;16.940;2023-01-16T10:39:38;19.60;38.10
21891;DHT22;11110;52.386;16.940;2023-01-16T10:42:11;19.70;38.00
21891;DHT22;11110;52.386;16.940;2023-01-16T10:45:09;19.80;38.00
21891;DHT22;11110;52.386;16.940;2023-01-16T10:47:56;19.80;37.80
21891;DHT22;11110;52.386;16.940;2023-01-16T10:50:43;20.10;37.50
21891;DHT22;11110;52.386;16.940;2023-01-16T10:53:12;20.00;37.40
21891;DHT22;11110;52.386;16.940;2023-01-16T10:55:44;20.20;37.20
21891;DHT22;11110;52.386;16.940;2023-01-16T10:58:24;20.30;36.90
21891;DHT22;11110;52.386;16.940;2023-01-16T11:00:58;20.30;36.80
21891;DHT22;11110;52.386;16.940;2023-01-16T11:03:33;20.30;36.60
21891;DHT22;11110;52.386;16.940;2023-01-16T11:06:08;20.20;36.70
21891;DHT22;11110;52.386;16.940;2023-01-16T11:08:38;20.30;37.30
21891;DHT22;11110;52.386;16.940;2023-01-16T11:11:11;20.30;36.70
21891;DHT22;11110;52.386;16.940;2023-01-16T11:13:54;20.40;36.30
21891;DHT22;11110;52.386;16.940;2023-01-16T11:16:40;20.10;36.30
21891;DHT22;11110;52.386;16.940;2023-01-16T11:19:28;20.10;36.50
21891;DHT22;11110;52.386;16.940;2023-01-16T11:22:00;20.00;36.40
21891;DHT22;11110;52.386;16.940;2023-01-16T11:24:33;20.00;36.60
21891;DHT22;11110;52.386;16.940;2023-01-16T11:27:07;20.20;36.80
21891;DHT22;11110;52.386;16.940;2023-01-16T11:29:38;20.40;36.90
21891;DHT22;11110;52.386;16.940;2023-01-16T11:32:09;20.40;36.60
21891;DHT22;11110;52.386;16.940;2023-01-16T11:34:45;20.60;36.50
21891;DHT22;11110;52.386;16.940;2023-01-16T11:37:16;20.70;36.40
21891;DHT22;11110;52.386;16.940;2023-01-16T11:39:48;20.70;36.40
21891;DHT22;11110;52.386;16.940;2023-01-16T11:42:19;20.70;36.20
21891;DHT22;11110;52.386;16.940;2023-01-16T11:45:13;20.60;36.30
21891;DHT22;11110;52.386;16.940;2023-01-16T11:48:02;20.80;36.10
21891;DHT22;11110;52.386;16.940;2023-01-16T11:50:51;20.70;36.10
21891;DHT22;11110;52.386;16.940;2023-01-16T11:53:20;20.80;35.80
21891;DHT22;11110;52.386;16.940;2023-01-16T11:55:59;20.90;35.60
21891;DHT22;11110;52.386;16.940;2023-01-16T11:58:39;21.10;35.50
21891;DHT22;11110;52.386;16.940;2023-01-16T12:01:15;21.20;35.20
21891;DHT22;11110;52.386;16.940;2023-01-16T12:03:55;21.20;35.10
21891;DHT22;11110;52.386;16.940;2023-01-16T12:06:38;21.20;35.30
21891;DHT22;11110;52.386;16.940;2023-01-16T12:09:40;21.30;35.60
21891;DHT22;11110;52.386;16.940;2023-01-16T12:12:18;21.30;35.70
21891;DHT22;11110;52.386;16.940;2023-01-16T12:15:13;21.40;35.80
21891;DHT22;11110;52.386;16.940;2023-01-16T12:17:53;21.60;35.60
21891;DHT22;11110;52.386;16.940;2023-01-16T12:20:29;21.60;35.90
21891;DHT22;11110;52.386;16.940;2023-01-16T12:23:16;21.70;35.70
21891;DHT22;11110;52.386;16.940;2023-01-16T12:25:55;21.80;35.60
21891;DHT22;11110;52.386;16.940;2023-01-16T12:28:33;21.70;35.00
21891;DHT22;11110;52.386;16.940;2023-01-16T12:34:42;21.70;34.70
21891;DHT22;11110;52.386;16.940;2023-01-16T12:37:25;21.80;34.70
21891;DHT22;11110;52.386;16.940;2023-01-16T12:40:04;21.60;34.70
21891;DHT22;11110;52.386;16.940;2023-01-16T12:42:40;21.80;35.00
21891;DHT22;11110;52.386;16.940;2023-01-16T12:45:38;21.80;35.20
21891;DHT22;11110;52.386;16.940;2023-01-16T12:48:24;21.90;35.10
21891;DHT22;11110;52.386;16.940;2023-01-16T12:51:13;22.00;35.20
21891;DHT22;11110;52.386;16.940;2023-01-16T12:56:53;22.10;34.80
21891;DHT22;11110;52.386;16.940;2023-01-16T12:59:27;22.10;34.80
21891;DHT22;11110;52.386;16.940;2023-01-16T13:02:01;22.10;35.10
21891;DHT22;11110;52.386;16.940;2023-01-16T13:04:37;22.10;35.20
21891;DHT22;11110;52.386;16.940;2023-01-16T13:07:14;22.10;35.20
21891;DHT22;11110;52.386;16.940;2023-01-16T13:09:47;22.20;35.20
21891;DHT22;11110;52.386;16.940;2023-01-16T13:12:20;22.20;35.20
21891;DHT22;11110;52.386;16.940;2023-01-16T13:15:12;22.20;35.20
21891;DHT22;11110;52.386;16.940;2023-01-16T13:17:45;22.20;35.20
21891;DHT22;11110;52.386;16.940;2023-01-16T13:20:17;22.20;35.30
21891;DHT22;11110;52.386;16.940;2023-01-16T13:22:51;22.10;35.30
21891;DHT22;11110;52.386;16.940;2023-01-16T13:25:26;22.20;35.30
21891;DHT22;11110;52.386;16.940;2023-01-16T13:27:59;22.10;35.00
21891;DHT22;11110;52.386;16.940;2023-01-16T13:30:29;22.20;34.80
21891;DHT22;11110;52.386;16.940;2023-01-16T13:32:59;22.20;34.90
21891;DHT22;11110;52.386;16.940;2023-01-16T13:35:33;22.20;34.90
21891;DHT22;11110;52.386;16.940;2023-01-16T13:38:30;22.20;34.90
21891;DHT22;11110;52.386;16.940;2023-01-16T13:41:11;22.20;35.10
21891;DHT22;11110;52.386;16.940;2023-01-16T13:43:46;22.20;35.20
21891;DHT22;11110;52.386;16.940;2023-01-16T13:46:35;22.20;35.30
21891;DHT22;11110;52.386;16.940;2023-01-16T13:49:04;22.20;35.40
21891;DHT22;11110;52.386;16.940;2023-01-16T13:51:41;22.10;35.40
21891;DHT22;11110;52.386;16.940;2023-01-16T13:54:15;22.10;35.40
21891;DHT22;11110;52.386;16.940;2023-01-16T13:56:56;22.10;35.60
21891;DHT22;11110;52.386;16.940;2023-01-16T13:59:37;22.10;35.60
21891;DHT22;11110;52.386;16.940;2023-01-16T14:02:24;22.10;35.90
21891;DHT22;11110;52.386;16.940;2023-01-16T14:08:16;22.10;36.10
21891;DHT22;11110;52.386;16.940;2023-01-16T14:11:41;22.00;35.60
21891;DHT22;11110;52.386;16.940;2023-01-16T14:14:31;22.00;36.50
21891;DHT22;11110;52.386;16.940;2023-01-16T14:17:20;21.80;35.90
21891;DHT22;11110;52.386;16.940;2023-01-16T14:19:57;21.70;36.00
21891;DHT22;11110;52.386;16.940;2023-01-16T14:22:34;21.80;35.90
21891;DHT22;11110;52.386;16.940;2023-01-16T14:25:22;21.90;36.00
21891;DHT22;11110;52.386;16.940;2023-01-16T14:27:54;21.70;36.10
21891;DHT22;11110;52.386;16.940;2023-01-16T14:30:26;21.70;36.10
21891;DHT22;11110;52.386;16.940;2023-01-16T14:32:59;21.50;36.10
21891;DHT22;11110;52.386;16.940;2023-01-16T14:35:31;21.40;36.10
21891;DHT22;11110;52.386;16.940;2023-01-16T14:38:13;21.40;36.40
21891;DHT22;11110;52.386;16.940;2023-01-16T14:40:48;21.30;36.40
21891;DHT22;11110;52.386;16.940;2023-01-16T14:43:43;21.30;36.40
21891;DHT22;11110;52.386;16.940;2023-01-16T14:46:51;21.20;36.50
21891;DHT22;11110;52.386;16.940;2023-01-16T14:49:39;21.10;36.60
21891;DHT22;11110;52.386;16.940;2023-01-16T14:52:47;21.10;36.80
21891;DHT22;11110;52.386;16.940;2023-01-16T14:55:43;21.10;36.80
21891;DHT22;11110;52.386;16.940;2023-01-16T14:58:21;21.00;36.80
21891;DHT22;11110;52.386;16.940;2023-01-16T15:00:55;21.00;36.70
21891;DHT22;11110;52.386;16.940;2023-01-16T15:03:45;21.00;36.80
21891;DHT22;11110;52.386;16.940;2023-01-16T15:06:14;20.80;36.80
21891;DHT22;11110;52.386;16.940;2023-01-16T15:08:44;20.80;37.00
21891;DHT22;11110;52.386;16.940;2023-01-16T15:11:24;20.60;37.00
21891;DHT22;11110;52.386;16.940;2023-01-16T15:14:09;20.60;37.10
21891;DHT22;11110;52.386;16.940;2023-01-16T15:17:17;20.60;37.20
21891;DHT22;11110;52.386;16.940;2023-01-16T15:20:24;20.50;37.30
21891;DHT22;11110;52.386;16.940;2023-01-16T15:23:23;20.40;37.40
21891;DHT22;11110;52.386;16.940;2023-01-16T15:26:08;20.40;37.60
21891;DHT22;11110;52.386;16.940;2023-01-16T15:28:48;20.40;37.60
21891;DHT22;11110;52.386;16.940;2023-01-16T15:31:25;20.30;37.50
21891;DHT22;11110;52.386;16.940;2023-01-16T15:34:05;20.20;37.60
21891;DHT22;11110;52.386;16.940;2023-01-16T15:36:36;20.20;37.60
21891;DHT22;11110;52.386;16.940;2023-01-16T15:39:17;20.10;37.70
21891;DHT22;11110;52.386;16.940;2023-01-16T15:41:52;20.10;37.60
21891;DHT22;11110;52.386;16.940;2023-01-16T15:44:40;20.00;37.70
21891;DHT22;11110;52.386;16.940;2023-01-16T15:50:40;20.00;37.70
21891;DHT22;11110;52.386;16.940;2023-01-16T15:53:11;19.80;37.90
21891;DHT22;11110;52.386;16.940;2023-01-16T15:55:42;19.80;38.20
21891;DHT22;11110;52.386;16.940;2023-01-16T15:58:14;19.60;38.10
21891;DHT22;11110;52.386;16.940;2023-01-16T16:00:43;19.60;38.40
21891;DHT22;11110;52.386;16.940;2023-01-16T16:03:14;19.50;38.40
21891;DHT22;11110;52.386;16.940;2023-01-16T16:05:46;19.50;38.50
21891;DHT22;11110;52.386;16.940;2023-01-16T16:08:18;19.40;38.40
21891;DHT22;11110;52.386;16.940;2023-01-16T16:10:47;19.40;38.60
21891;DHT22;11110;52.386;16.940;2023-01-16T16:13:35;19.30;38.50
21891;DHT22;11110;52.386;16.940;2023-01-16T16:16:16;19.30;38.60
21891;DHT22;11110;52.386;16.940;2023-01-16T16:19:03;19.20;38.60